sensor_id;sensor_type;location;lat;lon;timestamp;temperature;humidity
69054;DHT22;56125;52.242;4.756;2023-07-13T00:00:04;22.70;59.10
69054;DHT22;56125;52.242;4.756;2023-07-13T00:05:10;22.70;59.00
69054;DHT22;56125;52.242;4.756;2023-07-13T00:10:12;22.70;58.90
69054;DHT22;56125;52.242;4.756;2023-07-13T00:15:19;22.70;59.00
69054;DHT22;56125;52.242;4.756;2023-07-13T00:20:24;22.70;58.90
69054;DHT22;56125;52.242;4.756;2023-07-13T00:25:25;22.70;59.00
69054;DHT22;56125;52.242;4.756;2023-07-13T00:30:29;22.70;59.00
69054;DHT22;56125;52.242;4.756;2023-07-13T00:35:31;22.70;59.00
69054;DHT22;56125;52.242;4.756;2023-07-13T00:40:32;22.80;59.10
69054;DHT22;56125;52.242;4.756;2023-07-13T00:50:34;22.70;58.90
69054;DHT22;56125;52.242;4.756;2023-07-13T00:55:35;22.70;58.80
69054;DHT22;56125;52.242;4.756;2023-07-13T01:00:38;22.70;58.70
69054;DHT22;56125;52.242;4.756;2023-07-13T01:05:39;22.70;58.50
69054;DHT22;56125;52.242;4.756;2023-07-13T01:10:50;22.70;58.40
69054;DHT22;56125;52.242;4.756;2023-07-13T01:15:52;22.70;58.30
69054;DHT22;56125;52.242;4.756;2023-07-13T01:20:59;22.70;58.10
69054;DHT22;56125;52.242;4.756;2023-07-13T01:26:00;22.70;58.00
69054;DHT22;56125;52.242;4.756;2023-07-13T01:31:02;22.70;57.80
69054;DHT22;56125;52.242;4.756;2023-07-13T01:36:03;22.70;57.80
69054;DHT22;56125;52.242;4.756;2023-07-13T01:41:04;22.70;57.70
69054;DHT22;56125;52.242;4.756;2023-07-13T01:46:05;22.70;57.60
69054;DHT22;56125;52.242;4.756;2023-07-13T01:51:06;22.70;57.50
69054;DHT22;56125;52.242;4.756;2023-07-13T01:56:07;22.70;57.40
69054;DHT22;56125;52.242;4.756;2023-07-13T02:01:08;22.70;57.50
69054;DHT22;56125;52.242;4.756;2023-07-13T02:06:09;22.70;57.30
69054;DHT22;56125;52.242;4.756;2023-07-13T02:11:11;22.70;57.30
69054;DHT22;56125;52.242;4.756;2023-07-13T02:16:12;22.70;57.20
69054;DHT22;56125;52.242;4.756;2023-07-13T02:21:13;22.70;57.00
69054;DHT22;56125;52.242;4.756;2023-07-13T02:26:14;22.70;57.00
69054;DHT22;56125;52.242;4.756;2023-07-13T02:31:16;22.70;56.80
69054;DHT22;56125;52.242;4.756;2023-07-13T02:36:17;22.70;56.70
69054;DHT22;56125;52.242;4.756;2023-07-13T02:41:19;22.70;56.70
69054;DHT22;56125;52.242;4.756;2023-07-13T02:46:20;22.70;56.50
69054;DHT22;56125;52.242;4.756;2023-07-13T02:51:21;22.70;56.50
69054;DHT22;56125;52.242;4.756;2023-07-13T02:56:24;22.70;56.50
69054;DHT22;56125;52.242;4.756;2023-07-13T03:01:26;22.70;56.40
69054;DHT22;56125;52.242;4.756;2023-07-13T03:06:27;22.70;56.30
69054;DHT22;56125;52.242;4.756;2023-07-13T03:11:31;22.70;56.20
69054;DHT22;56125;52.242;4.756;2023-07-13T03:16:32;22.60;56.30
69054;DHT22;56125;52.242;4.756;2023-07-13T03:21:33;22.70;56.30
69054;DHT22;56125;52.242;4.756;2023-07-13T03:26:34;22.60;56.30
69054;DHT22;56125;52.242;4.756;2023-07-13T03:31:36;22.70;56.30
69054;DHT22;56125;52.242;4.756;2023-07-13T03:36:38;22.60;56.30
69054;DHT22;56125;52.242;4.756;2023-07-13T03:41:39;22.60;56.30
69054;DHT22;56125;52.242;4.756;2023-07-13T03:46:40;22.60;56.30
69054;DHT22;56125;52.242;4.756;2023-07-13T03:51:41;22.60;56.40
69054;DHT22;56125;52.242;4.756;2023-07-13T03:56:42;22.60;56.40
69054;DHT22;56125;52.242;4.756;2023-07-13T04:01:44;22.60;56.40
69054;DHT22;56125;52.242;4.756;2023-07-13T04:06:45;22.60;56.40
69054;DHT22;56125;52.242;4.756;2023-07-13T04:11:46;22.70;56.40
69054;DHT22;56125;52.242;4.756;2023-07-13T04:16:47;22.60;56.40
69054;DHT22;56125;52.242;4.756;2023-07-13T04:21:48;22.70;56.40
69054;DHT22;56125;52.242;4.756;2023-07-13T04:26:49;22.70;56.50
69054;DHT22;56125;52.242;4.756;2023-07-13T04:31:50;22.70;56.60
69054;DHT22;56125;52.242;4.756;2023-07-13T04:36:51;22.70;56.60
69054;DHT22;56125;52.242;4.756;2023-07-13T04:41:53;22.70;56.60
69054;DHT22;56125;52.242;4.756;2023-07-13T04:46:54;22.80;56.70
69054;DHT22;56125;52.242;4.756;2023-07-13T04:51:55;22.80;56.70
69054;DHT22;56125;52.242;4.756;2023-07-13T04:56:56;22.80;56.80
69054;DHT22;56125;52.242;4.756;2023-07-13T05:01:57;22.80;57.00
69054;DHT22;56125;52.242;4.756;2023-07-13T05:06:59;22.70;57.40
69054;DHT22;56125;52.242;4.756;2023-07-13T05:12:00;22.70;59.00
69054;DHT22;56125;52.242;4.756;2023-07-13T05:17:01;22.70;58.30
69054;DHT22;56125;52.242;4.756;2023-07-13T05:22:03;22.70;58.70
69054;DHT22;56125;52.242;4.756;2023-07-13T05:27:05;22.60;58.90
69054;DHT22;56125;52.242;4.756;2023-07-13T05:32:06;22.60;58.80
69054;DHT22;56125;52.242;4.756;2023-07-13T05:37:08;22.70;58.80
69054;DHT22;56125;52.242;4.756;2023-07-13T05:42:09;22.70;58.90
69054;DHT22;56125;52.242;4.756;2023-07-13T05:47:10;22.60;59.00
69054;DHT22;56125;52.242;4.756;2023-07-13T05:52:11;22.60;59.30
69054;DHT22;56125;52.242;4.756;2023-07-13T05:57:12;22.50;59.60
69054;DHT22;56125;52.242;4.756;2023-07-13T06:02:13;22.50;60.30
69054;DHT22;56125;52.242;4.756;2023-07-13T06:07:18;22.60;60.60
69054;DHT22;56125;52.242;4.756;2023-07-13T06:12:20;22.70;60.30
69054;DHT22;56125;52.242;4.756;2023-07-13T06:17:21;22.80;59.90
69054;DHT22;56125;52.242;4.756;2023-07-13T06:22:22;22.90;59.50
69054;DHT22;56125;52.242;4.756;2023-07-13T06:27:24;23.00;59.10
69054;DHT22;56125;52.242;4.756;2023-07-13T06:32:25;23.00;58.90
69054;DHT22;56125;52.242;4.756;2023-07-13T06:37:26;23.00;58.70
69054;DHT22;56125;52.242;4.756;2023-07-13T06:42:27;23.00;58.40
69054;DHT22;56125;52.242;4.756;2023-07-13T06:47:28;23.00;58.20
69054;DHT22;56125;52.242;4.756;2023-07-13T06:52:29;23.10;58.20
69054;DHT22;56125;52.242;4.756;2023-07-13T06:57:30;23.20;58.20
69054;DHT22;56125;52.242;4.756;2023-07-13T07:02:31;23.30;58.00
69054;DHT22;56125;52.242;4.756;2023-07-13T07:07:32;23.40;57.80
69054;DHT22;56125;52.242;4.756;2023-07-13T07:12:34;23.50;57.60
69054;DHT22;56125;52.242;4.756;2023-07-13T07:17:35;23.60;57.30
69054;DHT22;56125;52.242;4.756;2023-07-13T07:22:36;23.70;57.10
69054;DHT22;56125;52.242;4.756;2023-07-13T07:27:37;23.70;56.80
69054;DHT22;56125;52.242;4.756;2023-07-13T07:32:38;23.70;56.70
69054;DHT22;56125;52.242;4.756;2023-07-13T07:37:39;23.80;56.30
69054;DHT22;56125;52.242;4.756;2023-07-13T07:42:41;23.90;56.30
69054;DHT22;56125;52.242;4.756;2023-07-13T07:47:42;23.80;56.10
69054;DHT22;56125;52.242;4.756;2023-07-13T07:52:43;23.90;56.00
69054;DHT22;56125;52.242;4.756;2023-07-13T07:57:45;23.90;56.00
69054;DHT22;56125;52.242;4.756;2023-07-13T08:02:46;23.90;55.80
69054;DHT22;56125;52.242;4.756;2023-07-13T08:07:47;23.90;55.80
69054;DHT22;56125;52.242;4.756;2023-07-13T08:12:48;23.90;55.60
69054;DHT22;56125;52.242;4.756;2023-07-13T08:17:49;24.00;55.60
69054;DHT22;56125;52.242;4.756;2023-07-13T08:22:50;24.00;55.30
69054;DHT22;56125;52.242;4.756;2023-07-13T08:27:51;24.00;55.40
69054;DHT22;56125;52.242;4.756;2023-07-13T08:32:53;24.00;55.30
69054;DHT22;56125;52.242;4.756;2023-07-13T08:37:54;24.00;55.30
69054;DHT22;56125;52.242;4.756;2023-07-13T08:42:58;24.00;55.20
69054;DHT22;56125;52.242;4.756;2023-07-13T08:53:24;24.00;55.10
69054;DHT22;56125;52.242;4.756;2023-07-13T08:58:30;24.00;55.10
69054;DHT22;56125;52.242;4.756;2023-07-13T09:03:40;24.00;55.00
69054;DHT22;56125;52.242;4.756;2023-07-13T09:14:52;24.10;54.90
69054;DHT22;56125;52.242;4.756;2023-07-13T09:20:03;24.10;54.90
69054;DHT22;56125;52.242;4.756;2023-07-13T09:25:13;24.10;55.00
69054;DHT22;56125;52.242;4.756;2023-07-13T09:35:54;24.10;54.90
69054;DHT22;56125;52.242;4.756;2023-07-13T09:46:21;24.10;54.90
69054;DHT22;56125;52.242;4.756;2023-07-13T09:51:23;24.10;55.90
69054;DHT22;56125;52.242;4.756;2023-07-13T09:56:27;24.10;54.90
69054;DHT22;56125;52.242;4.756;2023-07-13T10:01:37;24.10;54.90
69054;DHT22;56125;52.242;4.756;2023-07-13T10:06:40;24.10;54.90
69054;DHT22;56125;52.242;4.756;2023-07-13T10:11:44;24.10;54.70
69054;DHT22;56125;52.242;4.756;2023-07-13T10:16:46;24.10;54.80
69054;DHT22;56125;52.242;4.756;2023-07-13T10:21:56;24.10;54.90
69054;DHT22;56125;52.242;4.756;2023-07-13T10:32:12;24.10;54.90
69054;DHT22;56125;52.242;4.756;2023-07-13T10:37:22;24.10;54.70
69054;DHT22;56125;52.242;4.756;2023-07-13T10:42:35;24.10;54.80
69054;DHT22;56125;52.242;4.756;2023-07-13T10:47:37;24.10;54.70
69054;DHT22;56125;52.242;4.756;2023-07-13T10:52:41;24.10;54.70
69054;DHT22;56125;52.242;4.756;2023-07-13T10:57:43;24.10;54.50
69054;DHT22;56125;52.242;4.756;2023-07-13T11:02:56;24.10;54.60
69054;DHT22;56125;52.242;4.756;2023-07-13T11:08:33;24.10;54.50
69054;DHT22;56125;52.242;4.756;2023-07-13T11:13:55;24.10;54.50
69054;DHT22;56125;52.242;4.756;2023-07-13T11:34:38;24.10;54.30
69054;DHT22;56125;52.242;4.756;2023-07-13T11:39:43;24.10;54.30
69054;DHT22;56125;52.242;4.756;2023-07-13T11:44:50;24.10;54.20
69054;DHT22;56125;52.242;4.756;2023-07-13T11:49:55;24.10;54.30
69054;DHT22;56125;52.242;4.756;2023-07-13T11:54:57;24.10;54.30
69054;DHT22;56125;52.242;4.756;2023-07-13T12:00:09;24.10;54.30
69054;DHT22;56125;52.242;4.756;2023-07-13T12:05:16;24.20;54.30
69054;DHT22;56125;52.242;4.756;2023-07-13T12:10:21;24.20;54.30
69054;DHT22;56125;52.242;4.756;2023-07-13T12:15:41;24.20;54.30
69054;DHT22;56125;52.242;4.756;2023-07-13T12:20:45;24.20;54.30
69054;DHT22;56125;52.242;4.756;2023-07-13T12:25:46;24.20;54.30
69054;DHT22;56125;52.242;4.756;2023-07-13T12:30:49;24.20;54.30
69054;DHT22;56125;52.242;4.756;2023-07-13T12:35:52;24.20;54.30
69054;DHT22;56125;52.242;4.756;2023-07-13T12:40:53;24.20;55.40
69054;DHT22;56125;52.242;4.756;2023-07-13T12:51:16;24.20;54.40
69054;DHT22;56125;52.242;4.756;2023-07-13T12:56:27;24.20;54.50
69054;DHT22;56125;52.242;4.756;2023-07-13T13:01:35;24.20;54.30
69054;DHT22;56125;52.242;4.756;2023-07-13T13:06:38;24.20;54.40
69054;DHT22;56125;52.242;4.756;2023-07-13T13:11:39;24.20;54.40
69054;DHT22;56125;52.242;4.756;2023-07-13T13:16:49;24.20;54.30
69054;DHT22;56125;52.242;4.756;2023-07-13T13:21:53;24.20;54.10
69054;DHT22;56125;52.242;4.756;2023-07-13T13:26:54;24.20;54.30
69054;DHT22;56125;52.242;4.756;2023-07-13T13:31:57;24.20;54.30
69054;DHT22;56125;52.242;4.756;2023-07-13T13:36:58;24.20;54.80
69054;DHT22;56125;52.242;4.756;2023-07-13T13:41:59;24.20;55.00
69054;DHT22;56125;52.242;4.756;2023-07-13T13:47:01;24.20;54.80
69054;DHT22;56125;52.242;4.756;2023-07-13T13:52:03;24.20;54.80
69054;DHT22;56125;52.242;4.756;2023-07-13T13:57:04;24.20;54.70
69054;DHT22;56125;52.242;4.756;2023-07-13T14:02:27;24.20;54.60
69054;DHT22;56125;52.242;4.756;2023-07-13T14:07:29;24.20;54.70
69054;DHT22;56125;52.242;4.756;2023-07-13T14:12:31;23.80;54.40
69054;DHT22;56125;52.242;4.756;2023-07-13T14:17:32;24.40;54.60
69054;DHT22;56125;52.242;4.756;2023-07-13T14:22:34;24.20;54.40
69054;DHT22;56125;52.242;4.756;2023-07-13T14:27:35;24.20;54.20
69054;DHT22;56125;52.242;4.756;2023-07-13T14:32:36;24.20;54.00
69054;DHT22;56125;52.242;4.756;2023-07-13T14:37:38;24.20;53.90
69054;DHT22;56125;52.242;4.756;2023-07-13T14:42:39;24.30;54.00
69054;DHT22;56125;52.242;4.756;2023-07-13T14:47:41;24.30;54.10
69054;DHT22;56125;52.242;4.756;2023-07-13T14:52:42;24.30;53.90
69054;DHT22;56125;52.242;4.756;2023-07-13T14:57:44;24.30;53.80
69054;DHT22;56125;52.242;4.756;2023-07-13T15:02:53;24.30;53.90
69054;DHT22;56125;52.242;4.756;2023-07-13T15:08:01;24.30;53.90
69054;DHT22;56125;52.242;4.756;2023-07-13T15:13:21;24.30;53.80
69054;DHT22;56125;52.242;4.756;2023-07-13T15:18:25;24.30;53.90
69054;DHT22;56125;52.242;4.756;2023-07-13T15:23:26;24.20;53.70
69054;DHT22;56125;52.242;4.756;2023-07-13T15:28:27;24.30;53.90
69054;DHT22;56125;52.242;4.756;2023-07-13T15:33:29;24.30;53.90
69054;DHT22;56125;52.242;4.756;2023-07-13T15:38:31;24.30;53.90
69054;DHT22;56125;52.242;4.756;2023-07-13T15:43:33;24.30;53.90
69054;DHT22;56125;52.242;4.756;2023-07-13T15:48:34;24.30;53.90
69054;DHT22;56125;52.242;4.756;2023-07-13T15:53:38;24.30;53.90
69054;DHT22;56125;52.242;4.756;2023-07-13T15:58:39;24.30;53.90
69054;DHT22;56125;52.242;4.756;2023-07-13T16:03:41;24.30;53.80
69054;DHT22;56125;52.242;4.756;2023-07-13T16:08:43;24.30;53.80
69054;DHT22;56125;52.242;4.756;2023-07-13T16:13:44;24.30;53.90
69054;DHT22;56125;52.242;4.756;2023-07-13T16:18:48;24.30;53.90
69054;DHT22;56125;52.242;4.756;2023-07-13T16:23:50;24.20;53.80
69054;DHT22;56125;52.242;4.756;2023-07-13T16:28:52;24.30;53.80
69054;DHT22;56125;52.242;4.756;2023-07-13T16:34:01;24.30;53.80
69054;DHT22;56125;52.242;4.756;2023-07-13T16:39:10;24.30;53.80
69054;DHT22;56125;52.242;4.756;2023-07-13T16:44:14;24.30;53.80
69054;DHT22;56125;52.242;4.756;2023-07-13T16:49:27;24.30;54.00
69054;DHT22;56125;52.242;4.756;2023-07-13T16:54:38;24.30;54.10
69054;DHT22;56125;52.242;4.756;2023-07-13T16:59:40;24.20;54.00
69054;DHT22;56125;52.242;4.756;2023-07-13T17:04:41;24.20;54.40
69054;DHT22;56125;52.242;4.756;2023-07-13T17:09:43;24.20;54.40
69054;DHT22;56125;52.242;4.756;2023-07-13T17:14:46;24.20;55.20
69054;DHT22;56125;52.242;4.756;2023-07-13T17:19:52;24.30;54.70
69054;DHT22;56125;52.242;4.756;2023-07-13T17:24:53;24.10;54.00
69054;DHT22;56125;52.242;4.756;2023-07-13T17:29:54;24.10;53.90
69054;DHT22;56125;52.242;4.756;2023-07-13T17:34:56;24.10;53.70
69054;DHT22;56125;52.242;4.756;2023-07-13T17:39:57;24.10;54.30
69054;DHT22;56125;52.242;4.756;2023-07-13T17:44:58;23.90;53.40
69054;DHT22;56125;52.242;4.756;2023-07-13T17:49:59;23.80;53.80
69054;DHT22;56125;52.242;4.756;2023-07-13T17:55:00;23.80;53.40
69054;DHT22;56125;52.242;4.756;2023-07-13T18:00:03;23.80;53.70
69054;DHT22;56125;52.242;4.756;2023-07-13T18:05:24;24.10;54.00
69054;DHT22;56125;52.242;4.756;2023-07-13T18:10:25;23.80;53.70
69054;DHT22;56125;52.242;4.756;2023-07-13T18:15:29;23.80;53.40
69054;DHT22;56125;52.242;4.756;2023-07-13T18:20:31;23.70;53.70
69054;DHT22;56125;52.242;4.756;2023-07-13T18:25:33;23.70;53.40
69054;DHT22;56125;52.242;4.756;2023-07-13T18:30:35;23.70;53.80
69054;DHT22;56125;52.242;4.756;2023-07-13T18:35:37;23.90;53.50
69054;DHT22;56125;52.242;4.756;2023-07-13T18:40:39;23.60;53.60
69054;DHT22;56125;52.242;4.756;2023-07-13T18:45:40;23.60;53.90
69054;DHT22;56125;52.242;4.756;2023-07-13T18:50:42;23.60;54.20
69054;DHT22;56125;52.242;4.756;2023-07-13T18:55:45;23.60;54.00
69054;DHT22;56125;52.242;4.756;2023-07-13T19:00:50;23.60;54.10
69054;DHT22;56125;52.242;4.756;2023-07-13T19:05:51;23.60;54.40
69054;DHT22;56125;52.242;4.756;2023-07-13T19:10:53;23.60;54.50
69054;DHT22;56125;52.242;4.756;2023-07-13T19:15:55;23.60;54.60
69054;DHT22;56125;52.242;4.756;2023-07-13T19:20:57;23.50;54.50
69054;DHT22;56125;52.242;4.756;2023-07-13T19:26:08;23.30;54.40
69054;DHT22;56125;52.242;4.756;2023-07-13T19:31:21;23.50;54.30
69054;DHT22;56125;52.242;4.756;2023-07-13T19:36:25;23.50;54.20
69054;DHT22;56125;52.242;4.756;2023-07-13T19:41:27;23.50;54.10
69054;DHT22;56125;52.242;4.756;2023-07-13T19:46:31;23.50;54.30
69054;DHT22;56125;52.242;4.756;2023-07-13T19:51:33;23.40;54.10
69054;DHT22;56125;52.242;4.756;2023-07-13T19:56:35;23.40;53.80
69054;DHT22;56125;52.242;4.756;2023-07-13T20:01:36;23.40;53.80
69054;DHT22;56125;52.242;4.756;2023-07-13T20:06:37;23.40;53.50
69054;DHT22;56125;52.242;4.756;2023-07-13T20:11:39;23.30;53.60
69054;DHT22;56125;52.242;4.756;2023-07-13T20:16:40;23.30;53.60
69054;DHT22;56125;52.242;4.756;2023-07-13T20:21:42;23.30;53.60
69054;DHT22;56125;52.242;4.756;2023-07-13T20:26:44;23.30;53.60
69054;DHT22;56125;52.242;4.756;2023-07-13T20:31:47;23.30;53.60
69054;DHT22;56125;52.242;4.756;2023-07-13T20:36:49;23.30;53.70
69054;DHT22;56125;52.242;4.756;2023-07-13T20:41:51;23.30;54.00
69054;DHT22;56125;52.242;4.756;2023-07-13T20:46:53;23.60;54.30
69054;DHT22;56125;52.242;4.756;2023-07-13T20:51:54;23.30;54.20
69054;DHT22;56125;52.242;4.756;2023-07-13T20:56:55;23.20;53.80
69054;DHT22;56125;52.242;4.756;2023-07-13T21:01:58;23.20;53.70
69054;DHT22;56125;52.242;4.756;2023-07-13T21:06:59;23.40;53.70
69054;DHT22;56125;52.242;4.756;2023-07-13T21:12:00;23.20;53.40
69054;DHT22;56125;52.242;4.756;2023-07-13T21:17:01;23.20;53.40
69054;DHT22;56125;52.242;4.756;2023-07-13T21:22:02;23.20;53.40
69054;DHT22;56125;52.242;4.756;2023-07-13T21:27:03;23.10;53.30
69054;DHT22;56125;52.242;4.756;2023-07-13T21:32:10;23.30;53.30
69054;DHT22;56125;52.242;4.756;2023-07-13T21:37:17;23.10;53.30
69054;DHT22;56125;52.242;4.756;2023-07-13T21:42:19;23.10;53.20
69054;DHT22;56125;52.242;4.756;2023-07-13T21:47:20;23.10;53.30
69054;DHT22;56125;52.242;4.756;2023-07-13T21:52:21;23.00;53.20
69054;DHT22;56125;52.242;4.756;2023-07-13T21:57:22;23.00;53.30
69054;DHT22;56125;52.242;4.756;2023-07-13T22:02:23;23.00;53.30
69054;DHT22;56125;52.242;4.756;2023-07-13T22:07:24;23.00;53.40
69054;DHT22;56125;52.242;4.756;2023-07-13T22:12:25;23.00;53.50
69054;DHT22;56125;52.242;4.756;2023-07-13T22:17:26;22.90;53.50
69054;DHT22;56125;52.242;4.756;2023-07-13T22:22:28;23.00;53.40
69054;DHT22;56125;52.242;4.756;2023-07-13T22:27:30;22.90;53.20
69054;DHT22;56125;52.242;4.756;2023-07-13T22:32:31;22.90;53.20
69054;DHT22;56125;52.242;4.756;2023-07-13T22:37:34;22.90;53.30
69054;DHT22;56125;52.242;4.756;2023-07-13T22:42:37;22.90;53.30
69054;DHT22;56125;52.242;4.756;2023-07-13T22:47:39;22.90;53.50
69054;DHT22;56125;52.242;4.756;2023-07-13T22:52:41;22.80;53.40
69054;DHT22;56125;52.242;4.756;2023-07-13T22:57:42;22.80;54.50
69054;DHT22;56125;52.242;4.756;2023-07-13T23:02:48;22.70;53.60
69054;DHT22;56125;52.242;4.756;2023-07-13T23:07:49;22.80;53.50
69054;DHT22;56125;52.242;4.756;2023-07-13T23:12:51;22.70;53.60
69054;DHT22;56125;52.242;4.756;2023-07-13T23:17:52;22.70;53.70
69054;DHT22;56125;52.242;4.756;2023-07-13T23:22:53;22.70;53.60
69054;DHT22;56125;52.242;4.756;2023-07-13T23:27:56;22.70;53.70
69054;DHT22;56125;52.242;4.756;2023-07-13T23:33:03;22.70;53.60
69054;DHT22;56125;52.242;4.756;2023-07-13T23:38:09;22.60;53.60
69054;DHT22;56125;52.242;4.756;2023-07-13T23:43:10;22.60;53.50
69054;DHT22;56125;52.242;4.756;2023-07-13T23:48:12;22.60;53.70
69054;DHT22;56125;52.242;4.756;2023-07-13T23:53:15;22.60;53.90
69054;DHT22;56125;52.242;4.756;2023-07-13T23:58:16;22.60;54.00
